sensor_id;sensor_type;location;lat;lon;timestamp;temperature;humidity
18597;DHT22;9428;50.950;6.912;2022-10-31T00:00:07;15.90;99.90
18597;DHT22;9428;50.950;6.912;2022-10-31T00:02:56;15.50;99.90
18597;DHT22;9428;50.950;6.912;2022-10-31T00:05:45;15.50;99.90
18597;DHT22;9428;50.950;6.912;2022-10-31T00:08:36;16.10;99.90
18597;DHT22;9428;50.950;6.912;2022-10-31T00:11:23;15.50;99.90
18597;DHT22;9428;50.950;6.912;2022-10-31T00:14:13;16.20;99.90
18597;DHT22;9428;50.950;6.912;2022-10-31T00:17:00;15.40;99.90
18597;DHT22;9428;50.950;6.912;2022-10-31T00:19:49;15.50;99.90
18597;DHT22;9428;50.950;6.912;2022-10-31T00:22:36;16.00;99.90
18597;DHT22;9428;50.950;6.912;2022-10-31T00:25:23;15.40;99.90
18597;DHT22;9428;50.950;6.912;2022-10-31T00:28:11;15.40;99.90
18597;DHT22;9428;50.950;6.912;2022-10-31T00:30:59;15.30;99.90
18597;DHT22;9428;50.950;6.912;2022-10-31T00:33:49;15.40;99.90
18597;DHT22;9428;50.950;6.912;2022-10-31T00:36:38;15.90;99.90
18597;DHT22;9428;50.950;6.912;2022-10-31T00:39:25;15.30;99.90
18597;DHT22;9428;50.950;6.912;2022-10-31T00:42:12;15.40;99.90
18597;DHT22;9428;50.950;6.912;2022-10-31T00:44:59;15.40;99.90
18597;DHT22;9428;50.950;6.912;2022-10-31T00:47:47;15.90;99.90
18597;DHT22;9428;50.950;6.912;2022-10-31T00:50:36;15.50;99.90
18597;DHT22;9428;50.950;6.912;2022-10-31T00:53:24;15.10;99.90
18597;DHT22;9428;50.950;6.912;2022-10-31T00:56:12;15.10;99.90
18597;DHT22;9428;50.950;6.912;2022-10-31T00:58:59;15.00;99.90
18597;DHT22;9428;50.950;6.912;2022-10-31T01:01:46;15.80;99.90
18597;DHT22;9428;50.950;6.912;2022-10-31T01:04:33;15.20;99.90
18597;DHT22;9428;50.950;6.912;2022-10-31T01:07:21;15.30;99.90
18597;DHT22;9428;50.950;6.912;2022-10-31T01:10:10;15.20;99.90
18597;DHT22;9428;50.950;6.912;2022-10-31T01:12:57;15.20;99.90
18597;DHT22;9428;50.950;6.912;2022-10-31T01:15:45;15.20;99.90
18597;DHT22;9428;50.950;6.912;2022-10-31T01:18:32;15.20;99.90
18597;DHT22;9428;50.950;6.912;2022-10-31T01:21:21;15.10;99.90
18597;DHT22;9428;50.950;6.912;2022-10-31T01:24:08;15.20;99.90
18597;DHT22;9428;50.950;6.912;2022-10-31T01:26:58;15.20;99.90
18597;DHT22;9428;50.950;6.912;2022-10-31T01:29:46;15.20;99.90
18597;DHT22;9428;50.950;6.912;2022-10-31T01:32:33;15.20;99.90
18597;DHT22;9428;50.950;6.912;2022-10-31T01:35:20;15.30;99.90
18597;DHT22;9428;50.950;6.912;2022-10-31T01:38:07;15.30;99.90
18597;DHT22;9428;50.950;6.912;2022-10-31T01:40:55;15.80;99.90
18597;DHT22;9428;50.950;6.912;2022-10-31T01:43:52;15.10;99.90
18597;DHT22;9428;50.950;6.912;2022-10-31T01:46:43;15.20;99.90
18597;DHT22;9428;50.950;6.912;2022-10-31T01:49:35;15.20;99.90
18597;DHT22;9428;50.950;6.912;2022-10-31T01:52:26;15.10;99.90
18597;DHT22;9428;50.950;6.912;2022-10-31T01:55:17;15.10;99.90
18597;DHT22;9428;50.950;6.912;2022-10-31T01:58:11;15.10;99.90
18597;DHT22;9428;50.950;6.912;2022-10-31T02:01:01;15.10;99.90
18597;DHT22;9428;50.950;6.912;2022-10-31T02:03:49;15.10;99.90
18597;DHT22;9428;50.950;6.912;2022-10-31T02:06:40;15.00;99.90
18597;DHT22;9428;50.950;6.912;2022-10-31T02:09:30;15.00;99.90
18597;DHT22;9428;50.950;6.912;2022-10-31T02:12:18;15.00;99.90
18597;DHT22;9428;50.950;6.912;2022-10-31T02:15:08;15.10;99.90
18597;DHT22;9428;50.950;6.912;2022-10-31T02:17:57;15.10;99.90
18597;DHT22;9428;50.950;6.912;2022-10-31T02:20:55;15.10;99.90
18597;DHT22;9428;50.950;6.912;2022-10-31T02:24:07;14.10;99.90
18597;DHT22;9428;50.950;6.912;2022-10-31T02:27:09;14.80;99.90
18597;DHT22;9428;50.950;6.912;2022-10-31T02:30:09;14.90;99.90
18597;DHT22;9428;50.950;6.912;2022-10-31T02:33:07;15.10;99.90
18597;DHT22;9428;50.950;6.912;2022-10-31T02:36:02;14.70;99.90
18597;DHT22;9428;50.950;6.912;2022-10-31T02:38:55;14.70;99.90
18597;DHT22;9428;50.950;6.912;2022-10-31T02:41:47;14.70;99.90
18597;DHT22;9428;50.950;6.912;2022-10-31T02:44:39;14.40;99.90
18597;DHT22;9428;50.950;6.912;2022-10-31T02:47:33;14.50;99.90
18597;DHT22;9428;50.950;6.912;2022-10-31T02:50:28;14.60;99.90
18597;DHT22;9428;50.950;6.912;2022-10-31T02:53:15;14.60;99.90
18597;DHT22;9428;50.950;6.912;2022-10-31T02:56:06;14.60;99.90
18597;DHT22;9428;50.950;6.912;2022-10-31T02:59:01;14.50;99.90
18597;DHT22;9428;50.950;6.912;2022-10-31T03:02:00;14.50;99.90
18597;DHT22;9428;50.950;6.912;2022-10-31T03:08:12;14.40;99.90
18597;DHT22;9428;50.950;6.912;2022-10-31T03:11:04;14.60;99.90
18597;DHT22;9428;50.950;6.912;2022-10-31T03:13:56;14.50;99.90
18597;DHT22;9428;50.950;6.912;2022-10-31T03:16:46;14.50;99.90
18597;DHT22;9428;50.950;6.912;2022-10-31T03:19:38;15.00;99.90
18597;DHT22;9428;50.950;6.912;2022-10-31T03:22:28;14.50;99.90
18597;DHT22;9428;50.950;6.912;2022-10-31T03:25:18;14.50;99.90
18597;DHT22;9428;50.950;6.912;2022-10-31T03:28:06;14.40;99.90
18597;DHT22;9428;50.950;6.912;2022-10-31T03:30:57;14.70;99.90
18597;DHT22;9428;50.950;6.912;2022-10-31T03:33:46;14.40;99.90
18597;DHT22;9428;50.950;6.912;2022-10-31T03:36:38;14.40;99.90
18597;DHT22;9428;50.950;6.912;2022-10-31T03:39:27;14.50;99.90
18597;DHT22;9428;50.950;6.912;2022-10-31T03:42:20;14.40;99.90
18597;DHT22;9428;50.950;6.912;2022-10-31T03:45:11;14.50;99.90
18597;DHT22;9428;50.950;6.912;2022-10-31T03:48:00;14.50;99.90
18597;DHT22;9428;50.950;6.912;2022-10-31T03:50:52;14.50;99.90
18597;DHT22;9428;50.950;6.912;2022-10-31T03:53:47;14.50;99.90
18597;DHT22;9428;50.950;6.912;2022-10-31T03:56:43;14.50;99.90
18597;DHT22;9428;50.950;6.912;2022-10-31T03:59:35;14.60;99.90
18597;DHT22;9428;50.950;6.912;2022-10-31T04:02:28;14.60;99.90
18597;DHT22;9428;50.950;6.912;2022-10-31T04:05:20;14.60;99.90
18597;DHT22;9428;50.950;6.912;2022-10-31T04:08:11;14.60;99.90
18597;DHT22;9428;50.950;6.912;2022-10-31T04:11:00;14.90;99.90
18597;DHT22;9428;50.950;6.912;2022-10-31T04:13:50;14.60;99.90
18597;DHT22;9428;50.950;6.912;2022-10-31T04:16:41;14.60;99.90
18597;DHT22;9428;50.950;6.912;2022-10-31T04:19:29;14.60;99.90
18597;DHT22;9428;50.950;6.912;2022-10-31T04:22:16;14.60;99.90
18597;DHT22;9428;50.950;6.912;2022-10-31T04:25:04;14.40;99.90
18597;DHT22;9428;50.950;6.912;2022-10-31T04:27:52;14.40;99.90
18597;DHT22;9428;50.950;6.912;2022-10-31T04:30:39;14.40;99.90
18597;DHT22;9428;50.950;6.912;2022-10-31T04:33:27;14.40;99.90
18597;DHT22;9428;50.950;6.912;2022-10-31T04:36:14;14.30;99.90
18597;DHT22;9428;50.950;6.912;2022-10-31T04:39:02;14.30;99.90
18597;DHT22;9428;50.950;6.912;2022-10-31T04:41:49;14.30;99.90
18597;DHT22;9428;50.950;6.912;2022-10-31T04:44:36;14.20;99.90
18597;DHT22;9428;50.950;6.912;2022-10-31T04:47:23;14.30;99.90
18597;DHT22;9428;50.950;6.912;2022-10-31T04:50:12;14.30;99.90
18597;DHT22;9428;50.950;6.912;2022-10-31T04:52:59;14.30;99.90
18597;DHT22;9428;50.950;6.912;2022-10-31T04:55:46;14.30;99.90
18597;DHT22;9428;50.950;6.912;2022-10-31T04:58:34;14.30;99.90
18597;DHT22;9428;50.950;6.912;2022-10-31T05:01:21;14.30;99.90
18597;DHT22;9428;50.950;6.912;2022-10-31T05:04:08;14.30;99.90
18597;DHT22;9428;50.950;6.912;2022-10-31T05:06:57;14.30;99.90
18597;DHT22;9428;50.950;6.912;2022-10-31T05:09:44;14.80;99.90
18597;DHT22;9428;50.950;6.912;2022-10-31T05:12:31;14.20;99.90
18597;DHT22;9428;50.950;6.912;2022-10-31T05:15:20;14.30;99.90
18597;DHT22;9428;50.950;6.912;2022-10-31T05:18:07;14.60;99.90
18597;DHT22;9428;50.950;6.912;2022-10-31T05:20:54;14.20;99.90
18597;DHT22;9428;50.950;6.912;2022-10-31T05:23:43;14.10;99.90
18597;DHT22;9428;50.950;6.912;2022-10-31T05:26:30;14.10;99.90
18597;DHT22;9428;50.950;6.912;2022-10-31T05:29:17;14.00;99.90
18597;DHT22;9428;50.950;6.912;2022-10-31T05:32:04;14.10;99.90
18597;DHT22;9428;50.950;6.912;2022-10-31T05:34:52;14.00;99.90
18597;DHT22;9428;50.950;6.912;2022-10-31T05:37:39;14.60;99.90
18597;DHT22;9428;50.950;6.912;2022-10-31T05:40:28;14.00;99.90
18597;DHT22;9428;50.950;6.912;2022-10-31T05:43:15;14.00;99.90
18597;DHT22;9428;50.950;6.912;2022-10-31T05:46:02;13.90;99.90
18597;DHT22;9428;50.950;6.912;2022-10-31T05:48:49;13.80;99.90
18597;DHT22;9428;50.950;6.912;2022-10-31T05:51:37;13.90;99.90
18597;DHT22;9428;50.950;6.912;2022-10-31T05:54:24;13.70;99.90
18597;DHT22;9428;50.950;6.912;2022-10-31T05:57:13;13.90;99.90
18597;DHT22;9428;50.950;6.912;2022-10-31T06:00:00;13.90;99.90
18597;DHT22;9428;50.950;6.912;2022-10-31T06:02:47;14.00;99.90
18597;DHT22;9428;50.950;6.912;2022-10-31T06:05:35;14.00;99.90
18597;DHT22;9428;50.950;6.912;2022-10-31T06:08:22;14.00;99.90
18597;DHT22;9428;50.950;6.912;2022-10-31T06:11:09;14.00;99.90
18597;DHT22;9428;50.950;6.912;2022-10-31T06:13:58;14.00;99.90
18597;DHT22;9428;50.950;6.912;2022-10-31T06:16:45;14.00;99.90
18597;DHT22;9428;50.950;6.912;2022-10-31T06:19:32;13.90;99.90
18597;DHT22;9428;50.950;6.912;2022-10-31T06:22:19;13.90;99.90
18597;DHT22;9428;50.950;6.912;2022-10-31T06:25:07;13.90;99.90
18597;DHT22;9428;50.950;6.912;2022-10-31T06:27:54;13.90;99.90
18597;DHT22;9428;50.950;6.912;2022-10-31T06:30:43;13.90;99.90
18597;DHT22;9428;50.950;6.912;2022-10-31T06:33:30;13.80;99.90
18597;DHT22;9428;50.950;6.912;2022-10-31T06:36:17;13.90;99.90
18597;DHT22;9428;50.950;6.912;2022-10-31T06:39:05;13.90;99.90
18597;DHT22;9428;50.950;6.912;2022-10-31T06:41:52;13.80;99.90
18597;DHT22;9428;50.950;6.912;2022-10-31T06:44:39;13.80;99.90
18597;DHT22;9428;50.950;6.912;2022-10-31T06:47:28;13.80;99.90
18597;DHT22;9428;50.950;6.912;2022-10-31T06:50:15;14.20;99.90
18597;DHT22;9428;50.950;6.912;2022-10-31T06:53:02;13.70;99.90
18597;DHT22;9428;50.950;6.912;2022-10-31T06:55:50;13.80;99.90
18597;DHT22;9428;50.950;6.912;2022-10-31T06:58:37;13.80;99.90
18597;DHT22;9428;50.950;6.912;2022-10-31T07:01:24;14.50;99.90
18597;DHT22;9428;50.950;6.912;2022-10-31T07:04:13;13.80;99.90
18597;DHT22;9428;50.950;6.912;2022-10-31T07:07:00;13.70;99.90
18597;DHT22;9428;50.950;6.912;2022-10-31T07:09:47;13.80;99.90
18597;DHT22;9428;50.950;6.912;2022-10-31T07:12:34;14.40;99.90
18597;DHT22;9428;50.950;6.912;2022-10-31T07:15:21;13.90;99.90
18597;DHT22;9428;50.950;6.912;2022-10-31T07:18:10;13.90;99.90
18597;DHT22;9428;50.950;6.912;2022-10-31T07:20:59;13.90;99.90
18597;DHT22;9428;50.950;6.912;2022-10-31T07:23:47;14.00;99.90
18597;DHT22;9428;50.950;6.912;2022-10-31T07:26:35;13.90;99.90
18597;DHT22;9428;50.950;6.912;2022-10-31T07:29:22;14.00;99.90
18597;DHT22;9428;50.950;6.912;2022-10-31T07:32:09;14.00;99.90
18597;DHT22;9428;50.950;6.912;2022-10-31T07:34:56;14.10;99.90
18597;DHT22;9428;50.950;6.912;2022-10-31T07:37:45;14.00;99.90
18597;DHT22;9428;50.950;6.912;2022-10-31T07:40:32;14.00;99.90
18597;DHT22;9428;50.950;6.912;2022-10-31T07:43:20;14.00;99.90
18597;DHT22;9428;50.950;6.912;2022-10-31T07:46:07;14.00;99.90
18597;DHT22;9428;50.950;6.912;2022-10-31T07:48:54;14.30;99.90
18597;DHT22;9428;50.950;6.912;2022-10-31T07:51:41;14.10;99.90
18597;DHT22;9428;50.950;6.912;2022-10-31T07:54:30;14.00;99.90
18597;DHT22;9428;50.950;6.912;2022-10-31T07:57:17;14.00;99.90
18597;DHT22;9428;50.950;6.912;2022-10-31T08:00:05;14.10;99.90
18597;DHT22;9428;50.950;6.912;2022-10-31T08:02:59;14.10;99.90
18597;DHT22;9428;50.950;6.912;2022-10-31T08:05:47;14.10;99.90
18597;DHT22;9428;50.950;6.912;2022-10-31T08:08:34;14.10;99.90
18597;DHT22;9428;50.950;6.912;2022-10-31T08:11:23;14.10;99.90
18597;DHT22;9428;50.950;6.912;2022-10-31T08:14:10;14.10;99.90
18597;DHT22;9428;50.950;6.912;2022-10-31T08:16:57;14.10;99.90
18597;DHT22;9428;50.950;6.912;2022-10-31T08:19:44;14.10;99.90
18597;DHT22;9428;50.950;6.912;2022-10-31T08:22:31;14.10;99.90
18597;DHT22;9428;50.950;6.912;2022-10-31T08:25:18;14.00;99.90
18597;DHT22;9428;50.950;6.912;2022-10-31T08:28:09;14.00;99.90
18597;DHT22;9428;50.950;6.912;2022-10-31T08:30:57;14.00;99.90
18597;DHT22;9428;50.950;6.912;2022-10-31T08:33:44;14.10;99.90
18597;DHT22;9428;50.950;6.912;2022-10-31T08:36:32;14.20;99.90
18597;DHT22;9428;50.950;6.912;2022-10-31T08:39:19;14.20;99.90
18597;DHT22;9428;50.950;6.912;2022-10-31T08:42:06;14.70;99.90
18597;DHT22;9428;50.950;6.912;2022-10-31T08:44:55;14.20;99.90
18597;DHT22;9428;50.950;6.912;2022-10-31T08:47:42;14.20;99.90
18597;DHT22;9428;50.950;6.912;2022-10-31T08:50:31;14.50;99.90
18597;DHT22;9428;50.950;6.912;2022-10-31T08:53:19;14.40;99.90
18597;DHT22;9428;50.950;6.912;2022-10-31T08:56:06;14.40;99.90
18597;DHT22;9428;50.950;6.912;2022-10-31T08:58:54;14.50;99.90
18597;DHT22;9428;50.950;6.912;2022-10-31T09:01:44;14.50;99.90
18597;DHT22;9428;50.950;6.912;2022-10-31T09:04:31;14.60;99.90
18597;DHT22;9428;50.950;6.912;2022-10-31T09:07:18;14.60;99.90
18597;DHT22;9428;50.950;6.912;2022-10-31T09:10:06;14.60;99.90
18597;DHT22;9428;50.950;6.912;2022-10-31T09:12:56;14.70;99.90
18597;DHT22;9428;50.950;6.912;2022-10-31T09:15:46;14.90;99.90
18597;DHT22;9428;50.950;6.912;2022-10-31T09:18:34;14.80;99.90
18597;DHT22;9428;50.950;6.912;2022-10-31T09:21:21;14.90;99.90
18597;DHT22;9428;50.950;6.912;2022-10-31T09:24:09;15.40;99.90
18597;DHT22;9428;50.950;6.912;2022-10-31T09:26:58;14.90;99.90
18597;DHT22;9428;50.950;6.912;2022-10-31T09:29:45;14.90;99.90
18597;DHT22;9428;50.950;6.912;2022-10-31T09:32:32;14.90;99.90
18597;DHT22;9428;50.950;6.912;2022-10-31T09:35:21;15.00;99.90
18597;DHT22;9428;50.950;6.912;2022-10-31T09:38:10;15.70;99.90
18597;DHT22;9428;50.950;6.912;2022-10-31T09:41:06;14.90;99.90
18597;DHT22;9428;50.950;6.912;2022-10-31T09:44:00;14.90;99.90
18597;DHT22;9428;50.950;6.912;2022-10-31T09:46:56;14.90;99.90
18597;DHT22;9428;50.950;6.912;2022-10-31T09:50:09;14.90;99.90
18597;DHT22;9428;50.950;6.912;2022-10-31T09:53:03;14.90;99.90
18597;DHT22;9428;50.950;6.912;2022-10-31T09:55:52;15.10;99.90
18597;DHT22;9428;50.950;6.912;2022-10-31T09:58:42;15.00;99.90
18597;DHT22;9428;50.950;6.912;2022-10-31T10:01:37;15.30;99.90
18597;DHT22;9428;50.950;6.912;2022-10-31T10:04:41;15.40;99.90
18597;DHT22;9428;50.950;6.912;2022-10-31T10:07:35;15.60;99.90
18597;DHT22;9428;50.950;6.912;2022-10-31T10:10:35;16.20;99.90
18597;DHT22;9428;50.950;6.912;2022-10-31T10:13:44;15.50;99.90
18597;DHT22;9428;50.950;6.912;2022-10-31T10:16:44;15.60;99.90
18597;DHT22;9428;50.950;6.912;2022-10-31T10:19:49;15.60;99.90
18597;DHT22;9428;50.950;6.912;2022-10-31T10:22:47;16.20;99.90
18597;DHT22;9428;50.950;6.912;2022-10-31T10:25:40;16.60;99.90
18597;DHT22;9428;50.950;6.912;2022-10-31T10:28:30;16.00;99.90
18597;DHT22;9428;50.950;6.912;2022-10-31T10:31:27;16.10;99.90
18597;DHT22;9428;50.950;6.912;2022-10-31T10:34:21;16.20;99.90
18597;DHT22;9428;50.950;6.912;2022-10-31T10:37:22;16.20;99.90
18597;DHT22;9428;50.950;6.912;2022-10-31T10:40:15;16.40;99.90
18597;DHT22;9428;50.950;6.912;2022-10-31T10:43:22;16.50;99.90
18597;DHT22;9428;50.950;6.912;2022-10-31T10:46:18;16.60;99.90
18597;DHT22;9428;50.950;6.912;2022-10-31T10:49:30;16.70;99.90
18597;DHT22;9428;50.950;6.912;2022-10-31T10:52:29;16.80;99.90
18597;DHT22;9428;50.950;6.912;2022-10-31T10:55:29;16.70;99.90
18597;DHT22;9428;50.950;6.912;2022-10-31T10:58:21;16.60;99.90
18597;DHT22;9428;50.950;6.912;2022-10-31T11:01:11;16.60;99.90
18597;DHT22;9428;50.950;6.912;2022-10-31T11:04:00;16.60;99.90
18597;DHT22;9428;50.950;6.912;2022-10-31T11:06:57;16.70;99.90
18597;DHT22;9428;50.950;6.912;2022-10-31T11:09:44;16.80;99.90
18597;DHT22;9428;50.950;6.912;2022-10-31T11:12:33;16.80;99.90
18597;DHT22;9428;50.950;6.912;2022-10-31T11:15:24;16.80;99.90
18597;DHT22;9428;50.950;6.912;2022-10-31T11:18:20;16.90;99.90
18597;DHT22;9428;50.950;6.912;2022-10-31T11:21:21;16.90;99.90
18597;DHT22;9428;50.950;6.912;2022-10-31T11:24:15;17.00;99.90
18597;DHT22;9428;50.950;6.912;2022-10-31T11:27:12;17.00;99.90
18597;DHT22;9428;50.950;6.912;2022-10-31T11:30:09;17.10;99.90
18597;DHT22;9428;50.950;6.912;2022-10-31T11:32:58;17.00;99.90
18597;DHT22;9428;50.950;6.912;2022-10-31T11:35:47;17.00;99.90
18597;DHT22;9428;50.950;6.912;2022-10-31T11:38:41;17.10;99.90
18597;DHT22;9428;50.950;6.912;2022-10-31T11:41:30;17.00;99.90
18597;DHT22;9428;50.950;6.912;2022-10-31T11:44:20;17.00;99.90
18597;DHT22;9428;50.950;6.912;2022-10-31T11:47:13;17.00;99.90
18597;DHT22;9428;50.950;6.912;2022-10-31T11:50:10;17.00;99.90
18597;DHT22;9428;50.950;6.912;2022-10-31T11:52:58;17.00;99.90
18597;DHT22;9428;50.950;6.912;2022-10-31T11:55:46;17.00;99.90
18597;DHT22;9428;50.950;6.912;2022-10-31T11:58:34;17.00;99.90
18597;DHT22;9428;50.950;6.912;2022-10-31T12:01:25;17.10;99.90
18597;DHT22;9428;50.950;6.912;2022-10-31T12:04:13;17.10;99.90
18597;DHT22;9428;50.950;6.912;2022-10-31T12:07:03;17.00;99.90
18597;DHT22;9428;50.950;6.912;2022-10-31T12:09:50;17.10;99.90
18597;DHT22;9428;50.950;6.912;2022-10-31T12:12:53;17.00;99.90
18597;DHT22;9428;50.950;6.912;2022-10-31T12:15:49;17.10;99.90
18597;DHT22;9428;50.950;6.912;2022-10-31T12:18:56;17.10;99.90
18597;DHT22;9428;50.950;6.912;2022-10-31T12:21:57;17.10;99.90
18597;DHT22;9428;50.950;6.912;2022-10-31T12:25:01;17.30;99.90
18597;DHT22;9428;50.950;6.912;2022-10-31T12:28:00;17.30;99.90
18597;DHT22;9428;50.950;6.912;2022-10-31T12:30:59;17.30;99.90
18597;DHT22;9428;50.950;6.912;2022-10-31T12:33:56;17.40;99.90
18597;DHT22;9428;50.950;6.912;2022-10-31T12:36:53;17.40;99.90
18597;DHT22;9428;50.950;6.912;2022-10-31T12:39:54;17.40;99.90
18597;DHT22;9428;50.950;6.912;2022-10-31T12:42:53;17.40;99.90
18597;DHT22;9428;50.950;6.912;2022-10-31T12:45:51;17.40;99.90
18597;DHT22;9428;50.950;6.912;2022-10-31T12:48:56;17.50;99.90
18597;DHT22;9428;50.950;6.912;2022-10-31T12:51:54;17.60;99.90
18597;DHT22;9428;50.950;6.912;2022-10-31T12:54:57;17.50;99.90
18597;DHT22;9428;50.950;6.912;2022-10-31T12:57:48;17.50;99.90
18597;DHT22;9428;50.950;6.912;2022-10-31T13:00:40;17.50;99.90
18597;DHT22;9428;50.950;6.912;2022-10-31T13:03:32;17.50;99.90
18597;DHT22;9428;50.950;6.912;2022-10-31T13:06:27;17.60;99.90
18597;DHT22;9428;50.950;6.912;2022-10-31T13:09:23;17.70;99.90
18597;DHT22;9428;50.950;6.912;2022-10-31T13:12:17;17.70;99.90
18597;DHT22;9428;50.950;6.912;2022-10-31T13:15:13;17.70;99.90
18597;DHT22;9428;50.950;6.912;2022-10-31T13:18:05;17.80;99.90
18597;DHT22;9428;50.950;6.912;2022-10-31T13:20:58;17.70;99.90
18597;DHT22;9428;50.950;6.912;2022-10-31T13:23:49;17.80;99.90
18597;DHT22;9428;50.950;6.912;2022-10-31T13:26:42;17.90;99.90
18597;DHT22;9428;50.950;6.912;2022-10-31T13:29:33;17.90;99.90
18597;DHT22;9428;50.950;6.912;2022-10-31T13:32:22;17.90;99.90
18597;DHT22;9428;50.950;6.912;2022-10-31T13:35:16;17.90;99.90
18597;DHT22;9428;50.950;6.912;2022-10-31T13:38:14;17.90;99.90
18597;DHT22;9428;50.950;6.912;2022-10-31T13:41:05;17.80;99.90
18597;DHT22;9428;50.950;6.912;2022-10-31T13:44:00;17.80;99.90
18597;DHT22;9428;50.950;6.912;2022-10-31T13:50:32;17.80;99.90
18597;DHT22;9428;50.950;6.912;2022-10-31T13:53:21;17.80;99.90
18597;DHT22;9428;50.950;6.912;2022-10-31T13:56:18;17.70;99.90
18597;DHT22;9428;50.950;6.912;2022-10-31T13:59:18;17.80;99.90
18597;DHT22;9428;50.950;6.912;2022-10-31T14:02:14;17.70;99.90
18597;DHT22;9428;50.950;6.912;2022-10-31T14:05:04;17.70;99.90
18597;DHT22;9428;50.950;6.912;2022-10-31T14:07:54;17.80;99.90
18597;DHT22;9428;50.950;6.912;2022-10-31T14:10:48;17.80;99.90
18597;DHT22;9428;50.950;6.912;2022-10-31T14:13:38;17.80;99.90
18597;DHT22;9428;50.950;6.912;2022-10-31T14:16:30;17.90;99.90
18597;DHT22;9428;50.950;6.912;2022-10-31T14:19:19;17.90;99.90
18597;DHT22;9428;50.950;6.912;2022-10-31T14:22:19;17.90;99.90
18597;DHT22;9428;50.950;6.912;2022-10-31T14:25:27;17.90;99.90
18597;DHT22;9428;50.950;6.912;2022-10-31T14:28:20;17.90;99.90
18597;DHT22;9428;50.950;6.912;2022-10-31T14:31:34;17.90;99.90
18597;DHT22;9428;50.950;6.912;2022-10-31T14:34:24;17.90;99.90
18597;DHT22;9428;50.950;6.912;2022-10-31T14:37:24;17.90;99.90
18597;DHT22;9428;50.950;6.912;2022-10-31T14:40:24;17.90;99.90
18597;DHT22;9428;50.950;6.912;2022-10-31T14:43:52;17.90;99.90
18597;DHT22;9428;50.950;6.912;2022-10-31T14:46:49;17.90;99.90
18597;DHT22;9428;50.950;6.912;2022-10-31T14:50:13;17.90;99.90
18597;DHT22;9428;50.950;6.912;2022-10-31T14:53:04;18.00;99.90
18597;DHT22;9428;50.950;6.912;2022-10-31T14:55:54;17.90;99.90
18597;DHT22;9428;50.950;6.912;2022-10-31T14:58:45;17.90;99.90
18597;DHT22;9428;50.950;6.912;2022-10-31T15:01:35;17.90;99.90
18597;DHT22;9428;50.950;6.912;2022-10-31T15:04:24;17.90;99.90
18597;DHT22;9428;50.950;6.912;2022-10-31T15:07:16;17.90;99.90
18597;DHT22;9428;50.950;6.912;2022-10-31T15:10:06;17.90;99.90
18597;DHT22;9428;50.950;6.912;2022-10-31T15:13:09;17.90;99.90
18597;DHT22;9428;50.950;6.912;2022-10-31T15:15:59;17.90;99.90
18597;DHT22;9428;50.950;6.912;2022-10-31T15:18:59;18.00;99.90
18597;DHT22;9428;50.950;6.912;2022-10-31T15:21:46;17.90;99.90
18597;DHT22;9428;50.950;6.912;2022-10-31T15:24:36;17.90;99.90
18597;DHT22;9428;50.950;6.912;2022-10-31T15:27:24;17.90;99.90
18597;DHT22;9428;50.950;6.912;2022-10-31T15:30:20;17.80;99.90
18597;DHT22;9428;50.950;6.912;2022-10-31T15:33:19;17.80;99.90
18597;DHT22;9428;50.950;6.912;2022-10-31T15:36:18;17.70;99.90
18597;DHT22;9428;50.950;6.912;2022-10-31T15:39:09;17.60;99.90
18597;DHT22;9428;50.950;6.912;2022-10-31T15:41:58;17.60;99.90
18597;DHT22;9428;50.950;6.912;2022-10-31T15:44:48;17.60;99.90
18597;DHT22;9428;50.950;6.912;2022-10-31T15:47:36;17.60;99.90
18597;DHT22;9428;50.950;6.912;2022-10-31T15:50:29;17.50;99.90
18597;DHT22;9428;50.950;6.912;2022-10-31T15:53:20;17.40;99.90
18597;DHT22;9428;50.950;6.912;2022-10-31T15:56:11;17.40;99.90
18597;DHT22;9428;50.950;6.912;2022-10-31T15:59:00;17.30;99.90
18597;DHT22;9428;50.950;6.912;2022-10-31T16:01:59;17.40;99.90
18597;DHT22;9428;50.950;6.912;2022-10-31T16:04:53;17.30;99.90
18597;DHT22;9428;50.950;6.912;2022-10-31T16:07:48;17.30;99.90
18597;DHT22;9428;50.950;6.912;2022-10-31T16:10:36;17.20;99.90
18597;DHT22;9428;50.950;6.912;2022-10-31T16:13:26;17.20;99.90
18597;DHT22;9428;50.950;6.912;2022-10-31T16:16:15;17.20;99.90
18597;DHT22;9428;50.950;6.912;2022-10-31T16:19:05;17.10;99.90
18597;DHT22;9428;50.950;6.912;2022-10-31T16:21:55;17.20;99.90
18597;DHT22;9428;50.950;6.912;2022-10-31T16:24:47;17.10;99.90
18597;DHT22;9428;50.950;6.912;2022-10-31T16:27:37;17.10;99.90
18597;DHT22;9428;50.950;6.912;2022-10-31T16:30:30;17.00;99.90
18597;DHT22;9428;50.950;6.912;2022-10-31T16:33:23;17.10;99.90
18597;DHT22;9428;50.950;6.912;2022-10-31T16:36:29;17.10;99.90
18597;DHT22;9428;50.950;6.912;2022-10-31T16:39:17;17.00;99.90
18597;DHT22;9428;50.950;6.912;2022-10-31T16:42:08;17.10;99.90
18597;DHT22;9428;50.950;6.912;2022-10-31T16:44:56;17.00;99.90
18597;DHT22;9428;50.950;6.912;2022-10-31T16:47:43;17.00;99.90
18597;DHT22;9428;50.950;6.912;2022-10-31T16:50:30;17.00;99.90
18597;DHT22;9428;50.950;6.912;2022-10-31T16:53:18;17.00;99.90
18597;DHT22;9428;50.950;6.912;2022-10-31T16:56:14;16.90;99.90
18597;DHT22;9428;50.950;6.912;2022-10-31T16:59:08;17.00;99.90
18597;DHT22;9428;50.950;6.912;2022-10-31T17:01:57;17.00;99.90
18597;DHT22;9428;50.950;6.912;2022-10-31T17:04:45;16.90;99.90
18597;DHT22;9428;50.950;6.912;2022-10-31T17:07:32;17.00;99.90
18597;DHT22;9428;50.950;6.912;2022-10-31T17:10:19;17.00;99.90
18597;DHT22;9428;50.950;6.912;2022-10-31T17:13:10;16.90;99.90
18597;DHT22;9428;50.950;6.912;2022-10-31T17:16:02;16.90;99.90
18597;DHT22;9428;50.950;6.912;2022-10-31T17:18:49;16.90;99.90
18597;DHT22;9428;50.950;6.912;2022-10-31T17:21:37;16.90;99.90
18597;DHT22;9428;50.950;6.912;2022-10-31T17:24:25;16.90;99.90
18597;DHT22;9428;50.950;6.912;2022-10-31T17:27:13;16.90;99.90
18597;DHT22;9428;50.950;6.912;2022-10-31T17:30:00;16.80;99.90
18597;DHT22;9428;50.950;6.912;2022-10-31T17:32:49;16.80;99.90
18597;DHT22;9428;50.950;6.912;2022-10-31T17:35:37;16.80;99.90
18597;DHT22;9428;50.950;6.912;2022-10-31T17:38:24;16.70;99.90
18597;DHT22;9428;50.950;6.912;2022-10-31T17:41:11;16.70;99.90
18597;DHT22;9428;50.950;6.912;2022-10-31T17:43:58;16.40;99.90
18597;DHT22;9428;50.950;6.912;2022-10-31T17:46:46;16.60;99.90
18597;DHT22;9428;50.950;6.912;2022-10-31T17:49:34;16.70;99.90
18597;DHT22;9428;50.950;6.912;2022-10-31T17:52:22;16.70;99.90
18597;DHT22;9428;50.950;6.912;2022-10-31T17:55:09;16.60;99.90
18597;DHT22;9428;50.950;6.912;2022-10-31T17:57:56;16.70;99.90
18597;DHT22;9428;50.950;6.912;2022-10-31T18:00:44;16.70;99.90
18597;DHT22;9428;50.950;6.912;2022-10-31T18:03:31;16.70;99.90
18597;DHT22;9428;50.950;6.912;2022-10-31T18:06:19;16.70;99.90
18597;DHT22;9428;50.950;6.912;2022-10-31T18:09:07;16.70;99.90
18597;DHT22;9428;50.950;6.912;2022-10-31T18:11:54;16.70;99.90
18597;DHT22;9428;50.950;6.912;2022-10-31T18:14:41;16.60;99.90
18597;DHT22;9428;50.950;6.912;2022-10-31T18:17:29;16.70;99.90
18597;DHT22;9428;50.950;6.912;2022-10-31T18:20:16;16.70;99.90
18597;DHT22;9428;50.950;6.912;2022-10-31T18:23:05;16.60;99.90